createdAt,value
2023-03-05T00:00:05.487Z,34.24
2023-03-05T00:03:08.308Z,34.07
2023-03-05T00:06:11.468Z,34.21
2023-03-05T00:09:15.605Z,34.50
2023-03-05T00:12:18.898Z,34.27
2023-03-05T00:15:23.046Z,34.59
2023-03-05T00:18:25.980Z,34.43
2023-03-05T00:21:29.859Z,34.53
2023-03-05T00:24:32.617Z,34.58
2023-03-05T00:27:35.429Z,34.65
2023-03-05T00:30:39.766Z,34.76
2023-03-05T00:33:42.525Z,34.65
2023-03-05T00:36:45.969Z,34.70
2023-03-05T00:39:48.731Z,34.87
2023-03-05T00:42:51.760Z,34.85
2023-03-05T00:45:55.972Z,34.95
2023-03-05T00:48:58.795Z,34.85
2023-03-05T00:52:01.642Z,34.82
2023-03-05T00:55:04.679Z,34.87
2023-03-05T00:58:07.475Z,34.87
2023-03-05T01:01:11.605Z,34.95
2023-03-05T01:04:14.410Z,35.03
2023-03-05T01:07:17.133Z,35.00
2023-03-05T01:10:19.983Z,35.03
2023-03-05T01:13:22.752Z,35.02
2023-03-05T01:16:26.983Z,35.04
2023-03-05T01:19:29.829Z,35.09
2023-03-05T01:22:34.916Z,35.28
2023-03-05T01:25:37.694Z,35.07
2023-03-05T01:28:40.623Z,35.16
2023-03-05T01:31:44.817Z,35.30
2023-03-05T01:34:47.631Z,35.44
2023-03-05T01:37:50.598Z,35.39
2023-03-05T01:40:53.456Z,35.27
2023-03-05T01:43:56.368Z,35.46
2023-03-05T01:47:03.005Z,35.53
2023-03-05T01:50:06.673Z,35.50
2023-03-05T01:53:09.668Z,35.62
2023-03-05T01:56:12.628Z,35.60
2023-03-05T01:59:15.719Z,35.70
2023-03-05T02:02:23.250Z,35.63
2023-03-05T02:05:28.135Z,35.77
2023-03-05T02:08:31.009Z,35.58
2023-03-05T02:11:34.759Z,35.71
2023-03-05T02:14:40.603Z,35.72
2023-03-05T02:17:44.737Z,35.66
2023-03-05T02:20:51.265Z,35.66
2023-03-05T02:23:55.490Z,35.78
2023-03-05T02:26:58.654Z,35.79
2023-03-05T02:30:01.998Z,35.82
2023-03-05T02:33:06.861Z,35.73
2023-03-05T02:36:10.703Z,35.83
2023-03-05T02:39:14.927Z,35.72
2023-03-05T02:42:17.781Z,35.75
2023-03-05T02:45:23.084Z,35.66
2023-03-05T02:48:25.854Z,35.66
2023-03-05T02:51:28.784Z,35.66
2023-03-05T02:54:32.927Z,35.87
2023-03-05T02:57:35.781Z,35.59
2023-03-05T03:00:38.564Z,35.62
2023-03-05T03:03:41.917Z,35.37
2023-03-05T03:06:44.941Z,35.29
2023-03-05T03:09:49.169Z,35.13
2023-03-05T03:12:52.007Z,34.98
2023-03-05T03:16:02.452Z,34.78
2023-03-05T03:19:06.077Z,34.63
2023-03-05T03:22:09.701Z,34.49
2023-03-05T03:25:15.121Z,34.41
2023-03-05T03:28:17.919Z,34.19
2023-03-05T03:31:20.914Z,34.21
2023-03-05T03:34:26.392Z,34.19
2023-03-05T03:37:31.931Z,34.16
2023-03-05T03:40:37.509Z,34.09
2023-03-05T03:43:40.337Z,33.78
2023-03-05T03:46:45.546Z,34.29
2023-03-05T03:49:48.379Z,34.33
2023-03-05T03:52:51.147Z,34.11
2023-03-05T03:55:58.789Z,34.03
2023-03-05T03:59:03.383Z,34.06
2023-03-05T04:02:07.486Z,34.46
2023-03-05T04:05:10.574Z,34.01
2023-03-05T04:08:13.345Z,34.04
2023-03-05T04:11:19.451Z,34.12
2023-03-05T04:14:22.375Z,34.14
2023-03-05T04:17:25.271Z,33.90
2023-03-05T04:20:28.135Z,33.94
2023-03-05T04:23:30.902Z,33.73
2023-03-05T04:26:35.033Z,33.75
2023-03-05T04:29:37.829Z,33.70
2023-03-05T04:32:40.669Z,33.77
2023-03-05T04:35:43.565Z,33.76
2023-03-05T04:38:47.368Z,33.64
2023-03-05T04:41:52.851Z,33.39
2023-03-05T04:44:55.641Z,33.70
2023-03-05T04:47:58.513Z,33.58
2023-03-05T04:51:01.317Z,33.52
2023-03-05T04:54:04.141Z,33.49
2023-03-05T04:57:08.452Z,33.43
2023-03-05T05:00:14.429Z,33.55
2023-03-05T05:03:18.909Z,33.34
2023-03-05T05:06:21.783Z,33.60
2023-03-05T05:09:24.743Z,33.51
2023-03-05T05:12:31.005Z,33.60
2023-03-05T05:15:33.921Z,33.64
2023-03-05T05:18:38.574Z,33.56
2023-03-05T05:21:42.591Z,33.79
2023-03-05T05:24:45.390Z,33.76
2023-03-05T05:27:50.546Z,33.89
2023-03-05T05:30:56.779Z,33.77
2023-03-05T05:33:59.651Z,33.81
2023-03-05T05:37:02.468Z,33.86
2023-03-05T05:40:06.720Z,33.81
2023-03-05T05:43:10.952Z,33.80
2023-03-05T05:46:15.652Z,33.96
2023-03-05T05:49:18.544Z,33.82
2023-03-05T05:52:21.328Z,33.87
2023-03-05T05:55:26.923Z,33.92
2023-03-05T05:58:31.099Z,33.81
2023-03-05T06:01:34.266Z,33.90
2023-03-05T06:04:37.081Z,33.90
2023-03-05T06:07:41.814Z,33.90
2023-03-05T06:10:44.621Z,33.99
2023-03-05T06:13:49.264Z,34.00
2023-03-05T06:16:52.290Z,34.13
2023-03-05T06:19:55.837Z,34.13
2023-03-05T06:22:58.711Z,34.29
2023-03-05T06:26:02.017Z,34.17
2023-03-05T06:29:06.194Z,34.32
2023-03-05T06:32:09.222Z,34.27
2023-03-05T06:35:12.113Z,34.30
2023-03-05T06:38:16.260Z,34.18
2023-03-05T06:41:21.217Z,34.41
2023-03-05T06:44:25.863Z,34.43
2023-03-05T06:47:28.707Z,34.36
2023-03-05T06:50:31.469Z,34.46
2023-03-05T06:53:34.192Z,34.43
2023-03-05T06:56:38.145Z,34.44
2023-03-05T06:59:42.315Z,34.39
2023-03-05T07:02:45.116Z,34.31
2023-03-05T07:05:48.134Z,34.35
2023-03-05T07:08:51.146Z,34.56
2023-03-05T07:11:53.931Z,34.55
2023-03-05T07:15:00.430Z,34.53
2023-03-05T07:18:03.188Z,34.50
2023-03-05T07:21:06.308Z,34.61
2023-03-05T07:24:09.756Z,34.34
2023-03-05T07:27:12.589Z,34.56
2023-03-05T07:30:16.887Z,34.48
2023-03-05T07:33:19.733Z,34.56
2023-03-05T07:36:22.508Z,34.49
2023-03-05T07:39:25.250Z,34.49
2023-03-05T07:42:28.113Z,34.49
2023-03-05T07:45:32.528Z,34.56
2023-03-05T07:48:37.354Z,34.49
2023-03-05T07:51:41.609Z,34.53
2023-03-05T07:54:44.441Z,34.50
2023-03-05T07:57:47.239Z,34.50
2023-03-05T08:00:51.472Z,34.38
2023-03-05T08:03:54.390Z,34.42
2023-03-05T08:06:57.221Z,34.47
2023-03-05T08:10:00.017Z,34.44
2023-03-05T08:13:03.073Z,34.31
2023-03-05T08:16:08.192Z,34.42
2023-03-05T08:19:11.230Z,34.61
2023-03-05T08:22:16.193Z,34.45
2023-03-05T08:25:19.294Z,34.28
2023-03-05T08:28:22.144Z,34.54
2023-03-05T08:31:27.253Z,34.41
2023-03-05T08:34:30.110Z,34.34
2023-03-05T08:37:32.833Z,34.38
2023-03-05T08:40:35.704Z,34.36
2023-03-05T08:43:41.021Z,34.42
2023-03-05T08:46:45.146Z,34.51
2023-03-05T08:49:48.238Z,34.39
2023-03-05T08:52:51.024Z,34.34
2023-03-05T08:55:56.898Z,34.43
2023-03-05T08:58:59.735Z,34.38
2023-03-05T09:02:06.597Z,34.70
2023-03-05T09:05:09.775Z,34.22
2023-03-05T09:08:12.709Z,34.11
2023-03-05T09:11:15.578Z,34.16
2023-03-05T09:14:18.688Z,33.76
2023-03-05T09:17:23.070Z,33.85
2023-03-05T09:20:25.916Z,33.54
2023-03-05T09:23:28.696Z,33.51
2023-03-05T09:26:33.828Z,33.40
2023-03-05T09:29:36.620Z,33.40
2023-03-05T09:32:40.852Z,33.03
2023-03-05T09:35:46.524Z,33.22
2023-03-05T09:38:49.549Z,32.96
2023-03-05T09:42:14.388Z,32.90
2023-03-05T09:45:21.591Z,32.88
2023-03-05T09:48:27.486Z,32.62
2023-03-05T09:51:32.756Z,32.90
2023-03-05T09:54:38.892Z,32.75
2023-03-05T09:57:43.683Z,32.67
2023-03-05T10:00:48.375Z,32.52
2023-03-05T10:03:56.906Z,32.72
2023-03-05T10:07:01.678Z,32.61
2023-03-05T10:10:06.511Z,32.69
2023-03-05T10:13:15.129Z,32.66
2023-03-05T10:16:32.103Z,32.44
2023-03-05T10:19:42.551Z,32.88
2023-03-05T10:22:56.252Z,32.64
2023-03-05T10:26:19.576Z,32.35
2023-03-05T10:29:39.381Z,32.50
2023-03-05T10:32:48.356Z,32.58
2023-03-05T10:36:11.209Z,32.54
2023-03-05T10:39:37.048Z,32.70
2023-03-05T10:42:48.368Z,32.48
2023-03-05T10:45:52.131Z,32.35
2023-03-05T10:48:56.726Z,32.46
2023-03-05T10:52:04.620Z,32.38
2023-03-05T10:55:14.871Z,32.47
2023-03-05T10:58:17.903Z,32.23
2023-03-05T11:01:25.158Z,32.41
2023-03-05T11:04:28.883Z,32.38
2023-03-05T11:07:36.868Z,32.46
2023-03-05T11:10:39.669Z,32.55
2023-03-05T11:13:52.225Z,32.60
2023-03-05T11:16:54.983Z,32.84
2023-03-05T11:19:58.086Z,32.90
2023-03-05T11:23:06.847Z,33.00
2023-03-05T11:26:19.748Z,33.01
2023-03-05T11:29:24.822Z,33.04
2023-03-05T11:32:28.487Z,33.30
2023-03-05T11:35:33.413Z,33.17
2023-03-05T11:38:46.171Z,33.29
2023-03-05T11:41:49.889Z,33.38
2023-03-05T11:44:54.190Z,33.31
2023-03-05T11:47:59.728Z,33.23
2023-03-05T11:51:03.465Z,33.80
2023-03-05T11:54:10.268Z,33.89
2023-03-05T11:57:14.484Z,34.13
2023-03-05T12:00:18.944Z,34.11
2023-03-05T12:03:23.251Z,34.11
2023-03-05T12:06:30.055Z,34.13
2023-03-05T12:09:40.940Z,34.18
2023-03-05T12:12:47.406Z,34.11
2023-03-05T12:15:57.475Z,34.02
2023-03-05T12:19:09.609Z,34.06
2023-03-05T12:22:20.130Z,34.12
2023-03-05T12:25:32.356Z,34.14
2023-03-05T12:28:53.586Z,34.19
2023-03-05T12:31:56.710Z,34.27
2023-03-05T12:34:59.830Z,34.38
2023-03-05T12:38:25.657Z,34.25
2023-03-05T12:41:38.537Z,34.50
2023-03-05T12:44:42.675Z,34.46
2023-03-05T12:47:46.807Z,34.46
2023-03-05T12:50:52.709Z,34.47
2023-03-05T12:53:55.534Z,34.53
2023-03-05T12:56:59.727Z,34.44
2023-03-05T13:00:10.939Z,34.51
2023-03-05T13:03:18.477Z,34.54
2023-03-05T13:06:25.082Z,34.67
2023-03-05T13:09:31.858Z,34.58
2023-03-05T13:12:53.015Z,34.58
2023-03-05T13:15:57.555Z,34.77
2023-03-05T13:19:02.852Z,34.91
2023-03-05T13:22:14.524Z,34.79
2023-03-05T13:25:20.630Z,34.92
2023-03-05T13:28:23.429Z,34.58
2023-03-05T13:31:27.646Z,34.58
2023-03-05T13:34:46.210Z,34.47
2023-03-05T13:37:50.622Z,34.91
2023-03-05T13:41:07.643Z,36.32
2023-03-05T13:44:21.881Z,35.71
2023-03-05T13:47:28.570Z,35.27
2023-03-05T13:50:32.305Z,35.19
2023-03-05T13:53:35.386Z,34.85
2023-03-05T13:56:49.299Z,34.56
2023-03-05T13:59:53.444Z,34.43
2023-03-05T14:02:59.676Z,34.44
2023-03-05T14:06:07.903Z,34.07
2023-03-05T14:09:19.458Z,34.06
2023-03-05T14:12:27.425Z,34.02
2023-03-05T14:15:30.918Z,34.01
2023-03-05T14:18:35.335Z,33.86
2023-03-05T14:21:46.041Z,33.90
2023-03-05T14:24:52.998Z,33.67
2023-03-05T14:27:55.892Z,33.71
2023-03-05T14:30:58.804Z,33.70
2023-03-05T14:34:04.279Z,33.64
2023-03-05T14:37:09.403Z,33.56
2023-03-05T14:40:20.656Z,33.61
2023-03-05T14:43:25.813Z,33.50
2023-03-05T14:46:28.810Z,33.56
2023-03-05T14:49:32.957Z,33.51
2023-03-05T14:52:36.161Z,33.12
2023-03-05T14:55:39.410Z,34.18
2023-03-05T14:58:42.248Z,34.03
2023-03-05T15:01:47.174Z,34.16
2023-03-05T15:04:53.473Z,33.93
2023-03-05T15:07:56.347Z,34.46
2023-03-05T15:10:59.913Z,34.42
2023-03-05T15:14:02.842Z,34.52
2023-03-05T15:17:08.071Z,33.93
2023-03-05T15:20:16.106Z,34.11
2023-03-05T15:23:21.654Z,33.98
2023-03-05T15:26:24.393Z,34.03
2023-03-05T15:29:30.098Z,33.78
2023-03-05T15:32:32.898Z,33.86
2023-03-05T15:35:39.409Z,34.00
2023-03-05T15:38:43.185Z,33.60
2023-03-05T15:41:46.378Z,33.65
2023-03-05T15:44:49.178Z,33.60
2023-03-05T15:47:52.529Z,33.52
2023-03-05T15:50:56.671Z,33.67
2023-03-05T15:53:59.387Z,33.41
2023-03-05T15:57:02.198Z,33.74
2023-03-05T16:00:05.445Z,33.50
2023-03-05T16:03:08.371Z,33.40
2023-03-05T16:06:13.466Z,33.43
2023-03-05T16:09:20.214Z,33.33
2023-03-05T16:12:24.020Z,33.50
2023-03-05T16:15:26.868Z,33.31
2023-03-05T16:18:31.166Z,33.37
2023-03-05T16:21:35.470Z,33.41
2023-03-05T16:24:38.339Z,33.48
2023-03-05T16:27:41.166Z,33.34
2023-03-05T16:30:46.373Z,33.49
2023-03-05T16:33:49.265Z,33.71
2023-03-05T16:36:56.878Z,33.83
2023-03-05T16:40:01.467Z,33.76
2023-03-05T16:43:09.074Z,33.72
2023-03-05T16:46:11.881Z,33.98
2023-03-05T16:49:14.676Z,34.13
2023-03-05T16:52:20.859Z,33.99
2023-03-05T16:55:23.824Z,34.06
2023-03-05T16:58:26.665Z,34.19
2023-03-05T17:01:30.399Z,34.22
2023-03-05T17:04:33.391Z,34.31
2023-03-05T17:07:40.357Z,34.28
2023-03-05T17:10:46.088Z,34.33
2023-03-05T17:13:49.341Z,35.30
2023-03-05T17:16:54.793Z,35.15
2023-03-05T17:19:57.610Z,35.02
2023-03-05T17:23:04.071Z,35.14
2023-03-05T17:26:07.730Z,35.06
2023-03-05T17:29:10.583Z,35.00
2023-03-05T17:32:13.406Z,35.05
2023-03-05T17:35:19.191Z,35.09
2023-03-05T17:38:23.721Z,35.02
2023-03-05T17:41:26.548Z,35.37
2023-03-05T17:44:29.326Z,35.29
2023-03-05T17:47:33.182Z,35.32
2023-03-05T17:50:46.349Z,35.34
2023-03-05T17:53:50.537Z,35.33
2023-03-05T17:56:54.965Z,35.32
2023-03-05T17:59:58.784Z,35.30
2023-03-05T18:03:01.634Z,34.97
2023-03-05T18:06:05.086Z,35.65
2023-03-05T18:09:10.602Z,35.69
2023-03-05T18:12:16.098Z,35.66
2023-03-05T18:15:20.169Z,35.74
2023-03-05T18:18:25.356Z,35.77
2023-03-05T18:21:28.298Z,35.75
2023-03-05T18:24:32.593Z,35.69
2023-03-05T18:27:35.379Z,35.46
2023-03-05T18:30:41.182Z,35.29
2023-03-05T18:33:44.083Z,35.08
2023-03-05T18:36:47.159Z,34.87
2023-03-05T18:39:52.125Z,34.92
2023-03-05T18:42:54.982Z,34.63
2023-03-05T18:45:58.539Z,34.58
2023-03-05T18:49:01.475Z,34.36
2023-03-05T18:52:04.487Z,34.54
2023-03-05T18:55:09.356Z,34.21
2023-03-05T18:58:14.249Z,33.99
2023-03-05T19:01:18.244Z,34.18
2023-03-05T19:04:21.176Z,34.17
2023-03-05T19:07:24.013Z,34.19
2023-03-05T19:10:28.275Z,34.29
2023-03-05T19:13:39.886Z,34.26
2023-03-05T19:16:44.255Z,34.17
2023-03-05T19:19:50.693Z,34.32
2023-03-05T19:22:55.828Z,34.42
2023-03-05T19:26:01.523Z,34.53
2023-03-05T19:29:04.340Z,34.49
2023-03-05T19:32:08.284Z,34.53
2023-03-05T19:35:14.991Z,34.53
2023-03-05T19:38:17.897Z,34.65
2023-03-05T19:41:22.228Z,34.69
2023-03-05T19:44:24.977Z,34.62
2023-03-05T19:47:29.600Z,34.68
2023-03-05T19:50:34.146Z,34.65
2023-03-05T19:53:37.401Z,34.71
2023-03-05T19:56:41.867Z,34.82
2023-03-05T19:59:47.103Z,34.58
2023-03-05T20:02:49.806Z,34.76
2023-03-05T20:05:52.567Z,34.61
2023-03-05T20:08:55.407Z,34.58
2023-03-05T20:12:02.799Z,34.75
2023-03-05T20:15:05.884Z,34.64
2023-03-05T20:18:10.027Z,35.18
2023-03-05T20:21:13.374Z,35.02
2023-03-05T20:24:17.141Z,35.14
2023-03-05T20:27:21.322Z,34.87
2023-03-05T20:30:24.298Z,34.97
2023-03-05T20:33:27.785Z,34.87
2023-03-05T20:36:30.649Z,34.70
2023-03-05T20:39:36.343Z,34.73
2023-03-05T20:42:42.390Z,34.57
2023-03-05T20:45:45.632Z,34.42
2023-03-05T20:48:51.440Z,34.21
2023-03-05T20:51:54.239Z,34.43
2023-03-05T20:54:57.058Z,34.40
2023-03-05T20:58:01.146Z,34.10
2023-03-05T21:01:03.936Z,33.89
2023-03-05T21:04:06.870Z,33.77
2023-03-05T21:07:11.202Z,33.79
2023-03-05T21:10:16.076Z,33.99
2023-03-05T21:13:20.257Z,33.93
2023-03-05T21:16:24.188Z,33.52
2023-03-05T21:19:27.089Z,33.65
2023-03-05T21:22:31.325Z,33.57
2023-03-05T21:25:35.946Z,33.70
2023-03-05T21:28:42.935Z,33.56
2023-03-05T21:31:45.721Z,33.55
2023-03-05T21:34:48.720Z,33.41
2023-03-05T21:37:54.384Z,33.65
2023-03-05T21:40:58.973Z,33.42
2023-03-05T21:44:04.213Z,33.62
2023-03-05T21:47:08.542Z,33.75
2023-03-05T21:50:13.693Z,33.67
2023-03-05T21:53:16.892Z,34.05
2023-03-05T21:56:26.431Z,34.21
2023-03-05T21:59:33.548Z,34.29
2023-03-05T22:02:36.314Z,34.21
2023-03-05T22:05:39.116Z,33.95
2023-03-05T22:08:43.050Z,33.87
2023-03-05T22:11:45.955Z,33.97
2023-03-05T22:14:52.464Z,33.83
2023-03-05T22:17:55.273Z,34.00
2023-03-05T22:20:58.920Z,33.75
2023-03-05T22:24:03.785Z,33.80
2023-03-05T22:27:09.084Z,33.70
2023-03-05T22:30:14.173Z,33.69
2023-03-05T22:33:17.022Z,33.66
2023-03-05T22:36:20.082Z,33.69
2023-03-05T22:39:22.826Z,33.61
2023-03-05T22:42:25.720Z,33.68
2023-03-05T22:45:30.199Z,33.61
2023-03-05T22:48:32.928Z,33.65
2023-03-05T22:51:35.740Z,33.60
2023-03-05T22:54:38.519Z,33.59
2023-03-05T22:57:41.732Z,33.71
2023-03-05T23:00:47.217Z,33.62
2023-03-05T23:04:17.427Z,33.62
2023-03-05T23:07:23.564Z,33.74
2023-03-05T23:10:28.689Z,33.64
2023-03-05T23:13:31.519Z,33.60
2023-03-05T23:16:38.336Z,33.61
2023-03-05T23:19:41.109Z,33.56
2023-03-05T23:22:44.779Z,33.52
2023-03-05T23:25:47.591Z,33.68
2023-03-05T23:28:52.665Z,33.40
2023-03-05T23:31:56.818Z,33.62
2023-03-05T23:34:59.645Z,33.45
2023-03-05T23:38:03.109Z,33.53
2023-03-05T23:41:09.511Z,33.58
2023-03-05T23:44:12.301Z,33.12
2023-03-05T23:47:16.460Z,33.81
2023-03-05T23:50:22.093Z,33.79
2023-03-05T23:53:27.545Z,34.04
2023-03-05T23:56:31.519Z,33.77
2023-03-05T23:59:34.309Z,33.90
